地図

経路データ

SID SEASON NUMBER BASIN SUBBASIN NAME ISO_TIME NATURE LAT LON WMO_WIND WMO_PRES WMO_AGENCY TRACK_TYPE DIST2LAND LANDFALL IFLAG USA_AGENCY USA_ATCF_ID USA_LAT USA_LON USA_RECORD USA_STATUS USA_WIND USA_PRES USA_SSHS USA_R34_NE USA_R34_SE USA_R34_SW USA_R34_NW USA_R50_NE USA_R50_SE USA_R50_SW USA_R50_NW USA_R64_NE USA_R64_SE USA_R64_SW USA_R64_NW USA_POCI USA_ROCI USA_RMW USA_EYE TOKYO_LAT TOKYO_LON TOKYO_GRADE TOKYO_WIND TOKYO_PRES TOKYO_R50_DIR TOKYO_R50_LONG TOKYO_R50_SHORT TOKYO_R30_DIR TOKYO_R30_LONG TOKYO_R30_SHORT TOKYO_LAND CMA_LAT CMA_LON CMA_CAT CMA_WIND CMA_PRES HKO_LAT HKO_LON HKO_CAT HKO_WIND HKO_PRES NEWDELHI_LAT NEWDELHI_LON NEWDELHI_GRADE NEWDELHI_WIND NEWDELHI_PRES NEWDELHI_CI NEWDELHI_DP NEWDELHI_POCI REUNION_LAT REUNION_LON REUNION_TYPE REUNION_WIND REUNION_PRES REUNION_TNUM REUNION_CI REUNION_RMW REUNION_R34_NE REUNION_R34_SE REUNION_R34_SW REUNION_R34_NW REUNION_R50_NE REUNION_R50_SE REUNION_R50_SW REUNION_R50_NW REUNION_R64_NE REUNION_R64_SE REUNION_R64_SW REUNION_R64_NW BOM_LAT BOM_LON BOM_TYPE BOM_WIND BOM_PRES BOM_TNUM BOM_CI BOM_RMW BOM_R34_NE BOM_R34_SE BOM_R34_SW BOM_R34_NW BOM_R50_NE BOM_R50_SE BOM_R50_SW BOM_R50_NW BOM_R64_NE BOM_R64_SE BOM_R64_SW BOM_R64_NW BOM_ROCI BOM_POCI BOM_EYE BOM_POS_METHOD BOM_PRES_METHOD NADI_LAT NADI_LON NADI_CAT NADI_WIND NADI_PRES WELLINGTON_LAT WELLINGTON_LON WELLINGTON_WIND WELLINGTON_PRES DS824_LAT DS824_LON DS824_STAGE DS824_WIND DS824_PRES TD9636_LAT TD9636_LON TD9636_STAGE TD9636_WIND TD9636_PRES TD9635_LAT TD9635_LON TD9635_WIND TD9635_PRES TD9635_ROCI NEUMANN_LAT NEUMANN_LON NEUMANN_CLASS NEUMANN_WIND NEUMANN_PRES MLC_LAT MLC_LON MLC_CLASS MLC_WIND MLC_PRES USA_GUST BOM_GUST BOM_GUST_PER REUNION_GUST REUNION_GUST_PER USA_SEAHGT USA_SEARAD_NE USA_SEARAD_SE USA_SEARAD_SW USA_SEARAD_NW STORM_SPEED STORM_DIR
1972336N10089 1972 133 NI BB NOT_NAMED 1972-12-01 03:00:00 NR 10.0000 88.9000 main 825 788 __________O___ -1 10.0000 88.9000 1 8 286
1972336N10089 1972 133 NI BB NOT_NAMED 1972-12-01 06:00:00 TS 10.1065 88.5158 main 788 761 O________OP___ jtwc_io IO161972 10.1000 88.5000 -1 10.1000 88.5000 TC 25 10.1130 88.5315 1 7 287
1972336N10089 1972 133 NI BB NOT_NAMED 1972-12-01 09:00:00 TS 10.2145 88.1887 main 761 735 P________PP___ IO161972 10.2101 88.1951 -1 10.2101 88.1951 TC 25 10.2205 88.1803 1 7 288
1972336N10089 1972 133 NI BB NOT_NAMED 1972-12-01 12:00:00 TS 10.3071 87.8856 main 735 710 O________OP___ jtwc_io IO161972 10.3000 87.9000 -1 10.3000 87.9000 TC 25 10.3178 87.8639 1 6 286
1972336N10089 1972 133 NI BB NOT_NAMED 1972-12-01 15:00:00 TS 10.3717 87.6183 main 710 690 P________PO___ IO161972 10.3575 87.6275 -1 10.3575 87.6275 TC 25 10.4000 87.6000 1 5 283
1972336N10089 1972 133 NI BB NOT_NAMED 1972-12-01 18:00:00 TS 10.4214 87.3993 main 690 681 O________OP___ jtwc_io IO161972 10.4000 87.4000 -1 10.4000 87.4000 TC 25 10.4641 87.3980 1 4 285
1972336N10089 1972 133 NI BB NOT_NAMED 1972-12-01 21:00:00 TS 10.4715 87.2449 main 675 665 P________PP___ IO161972 10.4499 87.2500 -1 10.4499 87.2500 TC 25 10.5147 87.2348 1 3 288
1972336N10089 1972 133 NI BB NOT_NAMED 1972-12-02 00:00:00 TS 10.5193 87.0931 main 665 650 O________OP___ jtwc_io IO161972 10.5000 87.1000 -1 10.5000 87.1000 TC 25 10.5579 87.0793 1 4 285
1972336N10089 1972 133 NI BB NOT_NAMED 1972-12-02 03:00:00 TS 10.5667 86.8817 main 650 621 P________PO___ IO161972 10.5500 86.8725 -1 10.5500 86.8725 TC 25 10.6000 86.9000 1 5 282
1972336N10089 1972 133 NI BB NOT_NAMED 1972-12-02 06:00:00 TS 10.6181 86.6058 main 621 596 O________OP___ jtwc_io IO161972 10.6000 86.6000 -1 10.6000 86.6000 TC 25 10.6543 86.6172 1 6 280
1972336N10089 1972 133 NI BB NOT_NAMED 1972-12-02 09:00:00 TS 10.6693 86.2942 main 596 566 P________PP___ IO161972 10.6500 86.2850 -1 10.6500 86.2850 TC 25 10.7078 86.3126 1 6 280
1972336N10089 1972 133 NI BB NOT_NAMED 1972-12-02 12:00:00 TS 10.7191 86.0089 main 566 552 O________OP___ jtwc_io IO161972 10.7000 86.0000 -1 10.7000 86.0000 TC 25 10.7574 86.0266 1 5 281
1972336N10089 1972 133 NI BB NOT_NAMED 1972-12-02 15:00:00 TS 10.7666 85.8033 main 552 543 P________PO___ IO161972 10.7500 85.8050 -1 10.7500 85.8050 TC 25 10.8000 85.8000 1 3 287
1972336N10089 1972 133 NI BB NOT_NAMED 1972-12-02 18:00:00 TS 10.8093 85.7032 main 543 543 O________OP___ jtwc_io IO161972 10.8000 85.7000 -1 10.8000 85.7000 TC 25 10.8279 85.7096 1 1 308
1972336N10089 1972 133 NI BB NOT_NAMED 1972-12-02 21:00:00 TS 10.8549 85.6925 main 548 548 P________PP___ IO161972 10.8575 85.7000 -1 10.8575 85.7000 TC 30 10.8497 85.6774 1 1 0
1972336N10089 1972 133 NI BB NOT_NAMED 1972-12-03 00:00:00 TS 10.8906 85.6855 main 548 539 O________OP___ jtwc_io IO161972 10.9000 85.7000 -1 10.9000 85.7000 TC 35 10.8717 85.6565 1 1 291
1972336N10089 1972 133 NI BB NOT_NAMED 1972-12-03 03:00:00 TS 10.8950 85.5866 main 539 520 P________PO___ IO161972 10.8925 85.5800 -1 10.8925 85.5800 TC 35 10.9000 85.6000 2 3 275
1972336N10089 1972 133 NI BB NOT_NAMED 1972-12-03 06:00:00 TS 10.9157 85.4063 main 520 508 O________OP___ jtwc_io IO161972 10.9000 85.4000 -1 10.9000 85.4000 TC 35 10.9470 85.4188 2 4 285
1972336N10089 1972 133 NI BB NOT_NAMED 1972-12-03 09:00:00 TS 11.0001 85.2001 main 508 495 P________PP___ IO161972 11.0000 85.2001 -1 11.0000 85.2001 TC 35 11.0002 85.2001 2 4 293
1972336N10089 1972 133 NI BB NOT_NAMED 1972-12-03 12:00:00 TS 11.0844 84.9938 main 495 477 O________OP___ jtwc_io IO161972 11.1000 85.0000 -1 11.1000 85.0000 TC 35 11.0533 84.9813 2 4 285
1972336N10089 1972 133 NI BB NOT_NAMED 1972-12-03 15:00:00 TS 11.1050 84.8133 main 477 468 P________PO___ IO161972 11.1075 84.8200 -1 11.1075 84.8200 TC 35 11.1000 84.8000 2 3 276
1972336N10089 1972 133 NI BB NOT_NAMED 1972-12-03 18:00:00 TS 11.1106 84.7266 main 468 468 O________OP___ jtwc_io IO161972 11.1000 84.7000 -1 11.1000 84.7000 TC 35 11.1318 84.7799 2 1 307
1972336N10089 1972 133 NI BB NOT_NAMED 1972-12-03 21:00:00 TS 11.1523 84.7399 main 474 474 P________PP___ IO161972 11.1500 84.7150 -1 11.1500 84.7150 TC 50 11.1569 84.7898 2 1 0
1972336N10089 1972 133 NI BB NOT_NAMED 1972-12-04 00:00:00 TS 11.1928 84.7183 main 474 466 O________OP___ jtwc_io IO161972 11.2000 84.7000 -1 11.2000 84.7000 TC 65 11.1785 84.7549 2 2 285
1972336N10089 1972 133 NI BB NOT_NAMED 1972-12-04 03:00:00 TS 11.1999 84.5600 main 466 428 P________PO___ IO161972 11.1998 84.5399 -1 11.1998 84.5399 TC 65 11.2000 84.6000 4 5 272
1972336N10089 1972 133 NI BB NOT_NAMED 1972-12-04 06:00:00 TS 11.2086 84.1976 main 428 382 O________OP___ jtwc_io IO161972 11.2000 84.2000 -1 11.2000 84.2000 TC 65 11.2258 84.1929 4 9 273
1972336N10089 1972 133 NI BB NOT_NAMED 1972-12-04 09:00:00 TS 11.2506 83.6326 main 379 337 P________PP___ IO161972 11.2503 83.6151 -1 11.2503 83.6151 TC 65 11.2512 83.6675 4 11 274
1972336N10089 1972 133 NI BB NOT_NAMED 1972-12-04 12:00:00 TS 11.2919 83.0361 main 328 293 O________OP___ jtwc_io IO161972 11.3000 83.0000 -1 11.3000 83.0000 TC 65 11.2758 83.1084 4 10 273
1972336N10089 1972 133 NI BB NOT_NAMED 1972-12-04 15:00:00 TS 11.2999 82.5983 main 293 262 P________PO___ IO161972 11.2998 82.5975 -1 11.2998 82.5975 TC 65 11.3000 82.6000 4 7 271
1972336N10089 1972 133 NI BB NOT_NAMED 1972-12-04 18:00:00 TS 11.3068 82.2868 main 262 229 O________OP___ jtwc_io IO161972 11.3000 82.3000 -1 11.3000 82.3000 TC 65 11.3205 82.2603 4 6 275
1972336N10089 1972 133 NI BB NOT_NAMED 1972-12-04 21:00:00 TS 11.3472 82.0225 main 229 208 P________PP___ IO161972 11.3499 82.0425 -1 11.3499 82.0425 TC 65 11.3419 81.9825 4 5 279
1972336N10089 1972 133 NI BB NOT_NAMED 1972-12-05 00:00:00 TS 11.3891 81.7795 main 208 176 O________OP___ jtwc_io IO161972 11.4000 81.8000 -1 11.4000 81.8000 TC 65 11.3674 81.7384 4 5 276
1972336N10089 1972 133 NI BB NOT_NAMED 1972-12-05 03:00:00 TS 11.4000 81.5000 main 176 143 P________PO___ IO161972 11.4000 81.5000 -1 11.4000 81.5000 TC 65 11.4000 81.5000 4 6 272
1972336N10089 1972 133 NI BB NOT_NAMED 1972-12-05 06:00:00 TS 11.4129 81.2043 main 143 122 O________OP___ jtwc_io IO161972 11.4000 81.2000 -1 11.4000 81.2000 TC 65 11.4387 81.2128 4 6 275
1972336N10089 1972 133 NI BB NOT_NAMED 1972-12-05 09:00:00 TS 11.4516 80.9375 main 114 93 P________PP___ IO161972 11.4350 80.9425 -1 11.4350 80.9425 TC 65 11.4850 80.9275 4 5 281
1972336N10089 1972 133 NI BB NOT_NAMED 1972-12-05 12:00:00 TS 11.5129 80.6845 main 93 65 O________OP___ jtwc_io IO161972 11.5000 80.7000 -1 11.5000 80.7000 TC 65 11.5388 80.6534 4 5 286
1972336N10089 1972 133 NI BB NOT_NAMED 1972-12-05 15:00:00 TS 11.5950 80.4283 main 65 43 P________PO___ IO161972 11.5925 80.4425 -1 11.5925 80.4425 TC 65 11.6000 80.4000 4 5 291
1972336N10089 1972 133 NI BB NOT_NAMED 1972-12-05 18:00:00 TS 11.6946 80.2064 main 43 21 O________OP___ jtwc_io IO161972 11.7000 80.2000 -1 11.7000 80.2000 TC 65 11.6837 80.2191 4 4 297
1972336N10089 1972 133 NI BB NOT_NAMED 1972-12-05 21:00:00 TS 11.8006 80.0225 main 21 0 P________PP___ IO161972 11.8149 80.0075 -1 11.8149 80.0075 TC 65 11.7719 80.0526 4 4 297
1972336N10089 1972 133 NI BB NOT_NAMED 1972-12-06 00:00:00 TS 11.8831 79.8199 main 0 0 O________OP___ jtwc_io IO161972 11.9000 79.8000 -1 11.9000 79.8000 TC 65 11.8492 79.8597 4 5 284
1972336N10089 1972 133 NI BB NOT_NAMED 1972-12-06 03:00:00 TS 11.9149 79.5633 main 0 0 P________PO___ IO161972 11.9224 79.5450 -1 11.9224 79.5450 TC 50 11.9000 79.6000 4 6 272
1972336N10089 1972 133 NI BB NOT_NAMED 1972-12-06 06:00:00 TS 11.9015 79.1869 main 0 0 O________OP___ jtwc_io IO161972 11.9000 79.2000 -1 11.9000 79.2000 TC 35 11.9045 79.1608 4 9 266
1972336N10089 1972 133 NI BB NOT_NAMED 1972-12-06 09:00:00 TS 11.8605 78.6824 main 0 0 P________PP___ IO161972 11.8502 78.6924 -1 11.8502 78.6924 TC 30 11.8811 78.6623 4 10 265
1972336N10089 1972 133 NI BB NOT_NAMED 1972-12-06 12:00:00 TS 11.8140 78.1942 main 0 0 O________OP___ jtwc_io IO161972 11.8000 78.2000 -1 11.8000 78.2000 TC 25 11.8420 78.1826 4 8 266
1972336N10089 1972 133 NI AS NOT_NAMED 1972-12-06 15:00:00 TS 11.7999 77.8550 main 0 0 P________PO___ IO161972 11.7999 77.8825 -1 11.7999 77.8825 TC 25 11.8000 77.8000 6 5 268
1972336N10089 1972 133 NI AS NOT_NAMED 1972-12-06 18:00:00 TS 11.7942 77.6819 main 0 0 O________OP___ jtwc_io IO161972 11.8000 77.7000 -1 11.8000 77.7000 TC 25 11.7826 77.6458 6 2 259
1972336N10089 1972 133 NI AS NOT_NAMED 1972-12-06 21:00:00 TS 11.7548 77.6201 main 0 0 P________PP___ IO161972 11.7499 77.6350 -1 11.7499 77.6350 TC 25 11.7644 77.5902 6 1 227
1972336N10089 1972 133 NI AS NOT_NAMED 1972-12-07 00:00:00 TS 11.7130 77.5882 main 0 0 O________OP___ jtwc_io IO161972 11.7000 77.6000 -1 11.7000 77.6000 TC 25 11.7390 77.5645 6 1 250
1972336N10089 1972 133 NI AS NOT_NAMED 1972-12-07 03:00:00 TS 11.7050 77.4867 main 0 0 P________PO___ IO161972 11.7075 77.4800 -1 11.7075 77.4800 TC 25 11.7000 77.5000 6 3 263
1972336N10089 1972 133 NI AS NOT_NAMED 1972-12-07 06:00:00 TS 11.6811 77.3055 main 0 0 O________OP___ jtwc_io IO161972 11.7000 77.3000 -1 11.7000 77.3000 TC 25 11.6434 77.3166 6 4 255
1972336N10089 1972 133 NI AS NOT_NAMED 1972-12-07 09:00:00 TS 11.6008 77.0758 main 0 0 P________PP___ IO161972 11.6150 77.0725 -1 11.6150 77.0725 TC 25 11.5724 77.0825 6 5 249
1972336N10089 1972 133 NI AS NOT_NAMED 1972-12-07 12:00:00 TS 11.4967 76.8024 main 0 0 O________OP___ jtwc_io IO161972 11.5000 76.8000 -1 11.5000 76.8000 TC 25 11.4902 76.8072 6 6 250
1972336N10089 1972 133 NI AS NOT_NAMED 1972-12-07 15:00:00 TS 11.4000 76.5100 main 0 0 P________PO___ IO161972 11.4000 76.5150 -1 11.4000 76.5150 TC 25 11.4000 76.5000 6 6 252
1972336N10089 1972 133 NI AS NOT_NAMED 1972-12-07 18:00:00 TS 11.3018 76.1878 main 0 0 O________OP___ jtwc_io IO161972 11.3000 76.2000 -1 11.3000 76.2000 TC 25 11.3046 76.1696 6 7 253
1972336N10089 1972 133 NI AS NOT_NAMED 1972-12-07 21:00:00 TS 11.2024 75.8424 main 10 10 P________PP___ IO161972 11.2001 75.8575 -1 11.2001 75.8575 TC 25 11.2054 75.8223 6 7 254
1972336N10089 1972 133 NI AS NOT_NAMED 1972-12-08 00:00:00 TS 11.1017 75.4819 main 39 39 O________OP___ jtwc_io IO161972 11.1000 75.5000 -1 11.1000 75.5000 TC 25 11.1035 75.4639 6 8 254
1972336N10089 1972 133 NI AS NOT_NAMED 1972-12-08 03:00:00 NR 11.0000 75.1000 main 78 __________O___ IO161972 -1 TC 11.0000 75.1000 6 8 255

IBTrACS Databaseについて

本データベースは、米国NOAAが公開する1842年以降の世界の熱帯低気圧のベストトラックデータアーカイブInternational Best Track Archive for Climate Stewardship (IBTrACS)を、ウェブで閲覧しやすい形式に変換したものです。

最終更新日:2021-10-08